Time;durP1;ratioP1;P1;durP2;ratioP2;P2;SDS_P1;SDS_P2;PMS_P1;PMS_P2;Temp;Humidity;BMP_temperature;BMP_pressure;BME280_temperature;BME280_humidity;BME280_pressure;Samples;Min_cycle;Max_cycle;Signal;HPM_P1;HPM_P2
2022/07/09 00:00:55;;;;;;;5.05;2.58;;;;;;;19.38;71.34;99693.60;1805598;77;21527;-76
2022/07/09 00:03:22;;;;;;;3.35;2.52;;;;;;;19.36;71.25;99691.66;1814047;77;21022;-76
2022/07/09 00:05:48;;;;;;;5.08;2.77;;;;;;;19.34;71.31;99690.25;1798339;77;21125;-73
2022/07/09 00:08:15;;;;;;;3.87;2.85;;;;;;;19.37;71.55;99687.94;1793749;77;21254;-74
2022/07/09 00:10:42;;;;;;;3.10;2.50;;;;;;;19.48;71.63;99689.55;1807068;77;21044;-75
2022/07/09 00:13:08;;;;;;;3.98;2.67;;;;;;;19.48;71.52;99691.71;1798043;79;21575;-75
2022/07/09 00:15:35;;;;;;;5.25;2.62;;;;;;;19.49;71.61;99688.48;1813082;77;21001;-75
2022/07/09 00:18:01;;;;;;;3.52;2.87;;;;;;;19.51;71.82;99683.69;1793594;79;21065;-74
2022/07/09 00:20:28;;;;;;;4.42;3.42;;;;;;;19.53;71.96;99680.23;1790258;77;21127;-76
2022/07/09 00:22:55;;;;;;;3.55;2.62;;;;;;;19.53;71.76;99682.94;1813197;79;21088;-75
2022/07/09 00:25:21;;;;;;;2.87;2.60;;;;;;;19.53;71.69;99682.43;1814484;79;21450;-75
2022/07/09 00:27:48;;;;;;;4.25;2.92;;;;;;;19.51;71.87;99681.84;1805347;77;21514;-74
2022/07/09 00:30:14;;;;;;;4.10;2.75;;;;;;;19.50;72.06;99683.41;1808755;79;21517;-75
2022/07/09 00:32:41;;;;;;;4.72;2.75;;;;;;;19.56;71.97;99682.48;1810762;77;21985;-77
2022/07/09 00:35:08;;;;;;;4.45;3.12;;;;;;;19.63;71.70;99681.34;1812832;77;21002;-75
2022/07/09 00:37:35;;;;;;;4.53;2.95;;;;;;;19.62;71.64;99675.67;1795492;78;21040;-75
2022/07/09 00:40:02;;;;;;;3.83;3.00;;;;;;;19.60;71.87;99668.32;1790535;79;20979;-73
2022/07/09 00:42:31;;;;;;;4.08;2.75;;;;;;;19.59;71.75;99668.58;1812888;77;21017;-75
2022/07/09 00:44:58;;;;;;;3.20;2.90;;;;;;;19.59;71.59;99672.61;1800891;78;21192;-75
2022/07/09 00:47:24;;;;;;;2.98;2.77;;;;;;;19.59;71.71;99671.27;1789633;77;21380;-77
2022/07/09 00:49:50;;;;;;;2.80;2.60;;;;;;;19.57;71.61;99670.67;1794891;77;21061;-75
2022/07/09 00:52:17;;;;;;;4.08;2.37;;;;;;;19.57;71.48;99672.84;1797455;78;21047;-73
2022/07/09 00:54:44;;;;;;;2.70;2.50;;;;;;;19.63;71.44;99673.80;1795429;77;21042;-75
2022/07/09 00:57:10;;;;;;;3.33;2.80;;;;;;;19.70;71.24;99666.95;1807725;79;21113;-75
2022/07/09 00:59:37;;;;;;;2.75;2.40;;;;;;;19.68;71.54;99658.27;1813424;77;20998;-75
2022/07/09 01:02:07;;;;;;;3.72;2.55;;;;;;;19.65;71.51;99664.95;1814039;77;21005;-75
2022/07/09 01:04:34;;;;;;;3.85;2.80;;;;;;;19.64;71.42;99660.09;1806381;78;20998;-75
2022/07/09 01:07:01;;;;;;;4.47;2.90;;;;;;;19.64;71.61;99664.64;1809306;79;21008;-76
2022/07/09 01:09:28;;;;;;;3.00;2.70;;;;;;;19.63;71.72;99666.52;1797390;77;22158;-72
2022/07/09 01:11:54;;;;;;;4.00;2.37;;;;;;;19.61;71.83;99669.16;1798008;77;21069;-74
2022/07/09 01:14:21;;;;;;;3.35;2.77;;;;;;;19.59;71.59;99665.34;1808238;77;20996;-74
2022/07/09 01:17:03;;;;;;;2.70;2.50;;;;;;;19.65;71.68;99666.30;1807762;77;21076;-73
2022/07/09 01:19:30;;;;;;;3.10;2.50;;;;;;;19.76;71.40;99657.47;1798000;79;21085;-73
2022/07/09 01:21:57;;;;;;;6.92;3.35;;;;;;;19.76;71.52;99666.05;1790955;77;21197;-74
2022/07/09 01:24:24;;;;;;;4.85;2.67;;;;;;;19.74;71.31;99662.27;1800077;77;21021;-75
2022/07/09 01:26:52;;;;;;;3.05;2.75;;;;;;;19.74;71.47;99663.61;1802160;77;21062;-74
2022/07/09 01:29:20;;;;;;;3.00;2.60;;;;;;;19.73;71.39;99662.48;1802354;77;21004;-75
2022/07/09 01:31:46;;;;;;;3.15;2.85;;;;;;;19.71;71.29;99665.37;1801107;77;21061;-74
2022/07/09 01:34:13;;;;;;;2.72;2.33;;;;;;;19.70;71.23;99667.80;1811767;78;21185;-75
2022/07/09 01:36:39;;;;;;;4.28;3.12;;;;;;;19.68;71.03;99664.48;1811674;77;21481;-74
2022/07/09 01:39:06;;;;;;;2.85;2.52;;;;;;;19.67;70.94;99663.38;1789946;79;21034;-75
2022/07/09 01:41:33;;;;;;;3.27;2.30;;;;;;;19.65;71.03;99661.73;1804369;77;20978;-75
2022/07/09 01:44:00;;;;;;;2.72;2.42;;;;;;;19.68;71.40;99659.09;1808379;77;21076;-77
2022/07/09 01:46:28;;;;;;;2.70;2.47;;;;;;;19.78;71.05;99662.09;1811181;78;21582;-75
2022/07/09 01:48:54;;;;;;;3.72;2.70;;;;;;;19.76;71.18;99661.51;1814050;78;21505;-74
2022/07/09 01:51:22;;;;;;;4.50;2.87;;;;;;;19.73;71.12;99659.27;1808972;77;21027;-75
2022/07/09 01:53:50;;;;;;;4.25;2.42;;;;;;;19.74;71.47;99660.92;1817939;77;21625;-74
2022/07/09 01:56:16;;;;;;;4.20;2.85;;;;;;;19.72;71.40;99654.94;1802075;77;21507;-75
2022/07/09 01:58:44;;;;;;;3.75;3.12;;;;;;;19.71;71.56;99656.48;1810536;77;21107;-73
2022/07/09 02:01:12;;;;;;;3.30;2.98;;;;;;;19.68;71.52;99653.70;1826028;77;20949;-72
2022/07/09 02:03:39;;;;;;;4.00;2.87;;;;;;;19.64;71.69;99647.12;1814520;77;21460;-74
2022/07/09 02:06:06;;;;;;;3.85;2.72;;;;;;;19.62;71.84;99643.84;1815985;77;21068;-73
2022/07/09 02:08:33;;;;;;;3.22;2.40;;;;;;;19.65;71.90;99650.13;1805609;78;21017;-72
2022/07/09 02:10:59;;;;;;;5.95;3.00;;;;;;;19.69;72.04;99651.31;1825695;77;21192;-71
2022/07/09 02:13:26;;;;;;;3.92;2.45;;;;;;;19.64;71.98;99654.70;1804607;77;21017;-72
2022/07/09 02:15:54;;;;;;;4.33;2.72;;;;;;;19.58;72.08;99654.25;1777303;78;21197;-75
2022/07/09 02:18:21;;;;;;;3.42;3.12;;;;;;;19.54;72.24;99653.61;1749367;80;21063;-74
2022/07/09 02:20:49;;;;;;;2.87;2.62;;;;;;;19.50;72.48;99655.12;1777933;80;20979;-77
2022/07/09 02:23:16;;;;;;;4.20;2.90;;;;;;;19.45;72.60;99657.13;1751763;79;21094;-74
2022/07/09 02:25:42;;;;;;;4.83;2.58;;;;;;;19.40;72.78;99653.79;1774276;79;21015;-73
2022/07/09 02:28:08;;;;;;;2.90;2.60;;;;;;;19.45;72.76;99653.09;1776105;79;21068;-77
2022/07/09 02:30:36;;;;;;;7.17;2.70;;;;;;;19.57;72.67;99662.06;1767189;79;21021;-76
2022/07/09 02:33:03;;;;;;;4.10;2.50;;;;;;;19.58;72.58;99666.91;1762359;80;21485;-75
2022/07/09 02:35:30;;;;;;;4.35;3.55;;;;;;;19.59;72.47;99675.31;1735796;80;21593;-75
2022/07/09 02:37:56;;;;;;;3.35;2.70;;;;;;;19.59;72.40;99686.90;1770022;80;21048;-75
2022/07/09 02:40:23;;;;;;;4.65;2.67;;;;;;;19.61;72.30;99705.01;1777356;80;20995;-73
2022/07/09 02:42:50;;;;;;;4.70;2.80;;;;;;;19.62;72.37;99716.09;1756919;80;21576;-74
2022/07/09 02:45:17;;;;;;;3.42;3.12;;;;;;;19.63;72.31;99741.16;1755330;79;21010;-76
2022/07/09 02:47:44;;;;;;;5.05;3.35;;;;;;;19.59;72.32;99750.22;1753942;80;21122;-78
2022/07/09 02:50:11;;;;;;;4.33;2.67;;;;;;;19.57;72.23;99749.63;1822225;78;21033;-78
2022/07/09 02:52:37;;;;;;;5.40;2.70;;;;;;;19.66;72.20;99744.73;1821966;77;21762;-77
2022/07/09 02:55:04;;;;;;;4.05;2.80;;;;;;;19.68;72.02;99735.08;1806673;77;21061;-76
2022/07/09 02:57:31;;;;;;;4.40;2.70;;;;;;;19.64;72.17;99715.34;1808091;77;20977;-75
2022/07/09 02:59:59;;;;;;;3.85;2.92;;;;;;;19.68;72.31;99711.64;1821958;78;21049;-76
2022/07/09 03:02:26;;;;;;;3.10;2.75;;;;;;;19.65;72.72;99703.50;1825613;78;20965;-75
2022/07/09 03:04:52;;;;;;;5.37;2.98;;;;;;;19.67;72.86;99714.05;1815393;77;21052;-75
2022/07/09 03:07:20;;;;;;;4.15;2.50;;;;;;;19.62;72.97;99732.77;1800208;78;21574;-76
2022/07/09 03:09:47;;;;;;;3.05;2.75;;;;;;;19.59;72.95;99738.62;1806027;77;20981;-76
2022/07/09 03:12:13;;;;;;;4.35;2.50;;;;;;;19.57;72.78;99746.12;1821284;77;21151;-77
2022/07/09 03:14:40;;;;;;;3.12;2.80;;;;;;;19.64;72.64;99750.37;1810151;77;21019;-76
2022/07/09 03:17:07;;;;;;;3.30;2.60;;;;;;;19.79;72.40;99742.42;1790313;78;20980;-74
2022/07/09 03:19:33;;;;;;;3.55;2.60;;;;;;;19.83;72.19;99756.55;1803108;78;21037;-76
2022/07/09 03:22:00;;;;;;;4.83;3.30;;;;;;;19.87;72.02;99752.88;1822054;78;21033;-78
2022/07/09 03:24:27;;;;;;;3.15;2.55;;;;;;;19.87;71.88;99754.23;1816612;77;21224;-75
2022/07/09 03:26:54;;;;;;;2.90;2.58;;;;;;;19.86;71.67;99757.98;1805313;77;21081;-77
2022/07/09 03:29:20;;;;;;;2.60;2.40;;;;;;;19.86;71.61;99766.58;1794624;78;21033;-75
2022/07/09 03:31:48;;;;;;;3.85;2.60;;;;;;;19.84;71.50;99769.00;1819622;77;21536;-76
2022/07/09 03:34:14;;;;;;;2.80;2.25;;;;;;;19.83;71.57;99770.03;1818723;78;21068;-76
2022/07/09 03:36:41;;;;;;;2.45;2.25;;;;;;;19.82;71.51;99775.67;1818347;77;21753;-78
2022/07/09 03:39:07;;;;;;;2.90;2.60;;;;;;;19.80;70.84;99780.47;1820882;77;21210;-79
2022/07/09 03:41:35;;;;;;;2.20;2.10;;;;;;;19.78;70.68;99784.73;1826372;77;21300;-77
2022/07/09 03:44:03;;;;;;;3.05;2.30;;;;;;;19.81;70.41;99781.56;1814730;78;21072;-78
2022/07/09 03:46:29;;;;;;;6.85;2.67;;;;;;;19.90;70.23;99783.44;1811601;77;21145;-77
2022/07/09 03:48:56;;;;;;;3.62;2.50;;;;;;;19.92;70.02;99785.91;1817684;79;21215;-77
2022/07/09 03:51:23;;;;;;;2.67;2.05;;;;;;;19.92;69.77;99783.22;1807708;77;21053;-78
2022/07/09 03:53:50;;;;;;;2.75;2.10;;;;;;;19.92;69.52;99784.56;1815095;77;21305;-78
2022/07/09 03:56:16;;;;;;;2.50;2.30;;;;;;;19.91;69.36;99781.55;1798482;79;21053;-77
2022/07/09 03:58:43;;;;;;;2.70;2.22;;;;;;;19.92;69.02;99780.52;1814313;79;20986;-78
2022/07/09 04:01:09;;;;;;;3.50;2.72;;;;;;;19.93;68.88;99778.92;1811216;77;21089;-78
2022/07/09 04:03:36;;;;;;;6.70;3.10;;;;;;;19.95;68.72;99780.05;1791220;78;21034;-75
2022/07/09 04:06:03;;;;;;;4.62;3.17;;;;;;;19.95;69.26;99785.44;1817703;79;20986;-75
2022/07/09 04:08:31;;;;;;;5.28;3.10;;;;;;;19.88;70.13;99792.81;1814974;78;20975;-79
2022/07/09 04:10:58;;;;;;;3.55;2.72;;;;;;;19.72;70.86;99792.39;1813855;77;20990;-76
2022/07/09 04:13:25;;;;;;;3.67;2.80;;;;;;;19.73;71.16;99798.06;1795932;77;21092;-76
2022/07/09 04:15:52;;;;;;;8.85;3.60;;;;;;;19.76;71.26;99796.77;1799819;77;21006;-77
2022/07/09 04:18:20;;;;;;;4.28;2.90;;;;;;;19.75;71.26;99804.05;1796671;77;21085;-75
2022/07/09 04:20:46;;;;;;;4.42;3.37;;;;;;;19.73;71.01;99796.71;1781342;78;21099;-78
2022/07/09 04:23:13;;;;;;;3.35;3.02;;;;;;;19.68;71.00;99792.48;1771450;79;21503;-79
2022/07/09 04:25:40;;;;;;;5.10;3.55;;;;;;;19.63;70.95;99789.67;1795964;77;21540;-77
2022/07/09 04:28:06;;;;;;;3.92;3.22;;;;;;;19.57;71.55;99791.39;1798334;77;21038;-78
2022/07/09 04:30:35;;;;;;;3.67;2.77;;;;;;;19.54;71.61;99793.71;1800501;77;21068;-79
2022/07/09 04:33:02;;;;;;;3.47;2.75;;;;;;;19.52;71.83;99797.16;1802775;77;20998;-77
2022/07/09 04:35:28;;;;;;;5.33;3.00;;;;;;;19.52;71.76;99803.89;1783856;79;21652;-78
2022/07/09 04:37:55;;;;;;;3.67;3.10;;;;;;;19.54;72.42;99799.09;1802395;78;21512;-78
2022/07/09 04:40:22;;;;;;;5.72;3.00;;;;;;;19.61;73.41;99793.12;1805381;78;20990;-77
2022/07/09 04:42:50;;;;;;;3.65;3.17;;;;;;;19.75;73.32;99789.22;1802577;78;21076;-78
2022/07/09 04:45:17;;;;;;;5.03;3.40;;;;;;;19.78;73.84;99789.28;1811759;78;21052;-78
2022/07/09 04:47:43;;;;;;;7.55;3.60;;;;;;;19.75;73.61;99782.48;1818945;77;21044;-76
2022/07/09 04:50:11;;;;;;;6.58;4.10;;;;;;;19.70;73.91;99783.68;1812392;78;21773;-76
2022/07/09 04:52:38;;;;;;;3.92;3.33;;;;;;;19.61;73.84;99771.56;1825838;78;21292;-75
2022/07/09 04:55:06;;;;;;;4.92;3.87;;;;;;;19.57;74.08;99773.06;1815144;78;21017;-76
2022/07/09 04:57:33;;;;;;;5.28;4.00;;;;;;;19.64;74.75;99771.09;1821012;78;21081;-76
2022/07/09 05:00:01;;;;;;;5.47;4.03;;;;;;;19.75;74.53;99758.23;1821905;77;21521;-75
2022/07/09 05:02:27;;;;;;;4.83;4.20;;;;;;;19.78;74.27;99752.89;1825756;78;21215;-77
2022/07/09 05:04:54;;;;;;;5.65;3.90;;;;;;;19.75;73.93;99746.09;1824001;78;21021;-76
2022/07/09 05:07:23;;;;;;;3.87;3.50;;;;;;;19.74;73.43;99736.38;1804791;77;21480;-79
2022/07/09 05:09:49;;;;;;;6.58;4.08;;;;;;;19.80;73.51;99734.12;1828502;77;20996;-77
2022/07/09 05:12:16;;;;;;;5.08;4.22;;;;;;;19.82;73.27;99727.97;1807067;78;21056;-77
2022/07/09 05:14:43;;;;;;;5.72;4.20;;;;;;;19.86;73.31;99723.45;1803456;78;21140;-75
2022/07/09 05:17:10;;;;;;;6.28;4.25;;;;;;;19.86;73.05;99718.91;1835166;77;20996;-75
2022/07/09 05:19:38;;;;;;;5.20;4.25;;;;;;;19.89;72.74;99709.52;1827311;77;21118;-79
2022/07/09 05:22:04;;;;;;;4.30;3.83;;;;;;;20.01;72.50;99702.28;1823962;78;21466;-75
2022/07/09 05:24:31;;;;;;;5.20;3.70;;;;;;;20.08;72.48;99700.84;1811758;77;21013;-76
2022/07/09 05:26:58;;;;;;;6.92;3.90;;;;;;;20.08;71.94;99684.12;1816968;78;21752;-76
2022/07/09 05:29:26;;;;;;;10.95;4.03;;;;;;;20.08;71.88;99679.27;1814777;78;21009;-76
2022/07/09 05:31:53;;;;;;;6.97;4.85;;;;;;;20.06;71.70;99664.67;1807684;78;21060;-76
2022/07/09 05:34:19;;;;;;;4.70;4.03;;;;;;;20.06;71.55;99668.71;1821379;78;20989;-75
2022/07/09 05:36:45;;;;;;;4.28;3.80;;;;;;;20.04;71.62;99659.50;1803818;78;20982;-74
2022/07/09 05:39:11;;;;;;;4.17;3.55;;;;;;;20.00;71.52;99662.91;1826024;78;21267;-75
2022/07/09 05:41:38;;;;;;;4.67;4.00;;;;;;;19.96;71.72;99659.84;1824153;78;20997;-76
2022/07/09 05:44:04;;;;;;;3.85;3.55;;;;;;;19.92;71.57;99655.16;1812946;78;20994;-76
2022/07/09 05:46:31;;;;;;;6.00;3.40;;;;;;;19.93;71.73;99648.70;1811673;78;21446;-76
2022/07/09 05:48:58;;;;;;;8.55;4.05;;;;;;;20.00;71.75;99649.42;1813186;77;21069;-76
2022/07/09 05:51:25;;;;;;;6.58;3.83;;;;;;;19.99;71.46;99647.77;1815411;78;21231;-78
2022/07/09 05:53:51;;;;;;;5.37;3.50;;;;;;;19.97;71.34;99652.06;1799340;78;21049;-79
2022/07/09 05:56:18;;;;;;;5.50;4.05;;;;;;;19.96;71.04;99652.29;1801457;78;21009;-79
2022/07/09 06:01:05;;;;;;;6.15;4.17;;;;;;;19.99;70.95;99643.72;1842864;76;27773;-75
2022/07/09 06:03:32;;;;;;;7.58;4.30;;;;;;;20.01;70.94;99638.91;1791239;78;29140;-75
2022/07/09 06:05:58;;;;;;;4.35;3.85;;;;;;;20.14;70.57;99631.95;1746807;81;21196;-74
2022/07/09 06:08:26;;;;;;;8.20;4.65;;;;;;;20.15;70.52;99617.97;1755427;81;20941;-75
2022/07/09 06:10:53;;;;;;;5.20;4.25;;;;;;;20.14;71.02;99608.22;1748390;80;21009;-74
2022/07/09 06:13:20;;;;;;;4.95;4.00;;;;;;;20.12;71.38;99600.36;1758728;81;21032;-74
2022/07/09 06:15:47;;;;;;;4.15;3.47;;;;;;;20.01;71.73;99583.64;1757908;81;20989;-75
2022/07/09 06:18:13;;;;;;;5.70;3.77;;;;;;;19.86;72.36;99577.89;1758637;81;21946;-75
2022/07/09 06:20:40;;;;;;;4.87;3.85;;;;;;;19.71;73.12;99579.14;1757714;81;21040;-75
2022/07/09 06:23:07;;;;;;;4.33;3.80;;;;;;;19.56;73.82;99576.06;1758868;81;21000;-73
2022/07/09 06:25:33;;;;;;;3.90;3.50;;;;;;;19.48;74.72;99569.13;1747773;80;21041;-74
2022/07/09 06:28:01;;;;;;;6.30;3.92;;;;;;;19.41;75.35;99563.86;1763847;80;21101;-73
2022/07/09 06:30:29;;;;;;;4.47;4.03;;;;;;;19.28;76.00;99566.75;1778749;80;21603;-74
2022/07/09 06:32:55;;;;;;;6.37;4.28;;;;;;;19.12;76.80;99568.19;1777766;80;20994;-76
2022/07/09 06:35:21;;;;;;;5.20;4.10;;;;;;;19.01;77.95;99574.37;1778462;80;21545;-76
2022/07/09 06:37:48;;;;;;;6.03;4.33;;;;;;;19.00;78.61;99580.79;1775602;80;21978;-76
2022/07/09 06:40:15;;;;;;;5.53;3.87;;;;;;;19.04;78.94;99573.40;1762387;79;21140;-74
2022/07/09 06:42:41;;;;;;;4.87;4.50;;;;;;;18.99;79.29;99568.39;1755827;80;21210;-75
2022/07/09 06:45:10;;;;;;;5.95;4.78;;;;;;;18.93;79.95;99568.78;1744126;80;21017;-76
2022/07/09 06:47:37;;;;;;;4.60;4.20;;;;;;;18.88;80.26;99573.20;1774509;80;21636;-75
2022/07/09 06:50:06;;;;;;;4.58;4.17;;;;;;;18.91;80.53;99578.11;1752144;80;21558;-77
2022/07/09 06:52:32;;;;;;;4.35;3.95;;;;;;;19.00;80.58;99589.68;1778568;80;21049;-76
2022/07/09 06:54:59;;;;;;;5.72;4.85;;;;;;;19.01;80.77;99599.41;1777451;80;21893;-76
2022/07/09 06:57:26;;;;;;;5.85;4.15;;;;;;;18.99;80.80;99600.16;1777173;79;21060;-75
2022/07/09 06:59:53;;;;;;;4.67;4.20;;;;;;;18.97;81.37;99605.49;1777621;80;21081;-76
2022/07/09 07:02:19;;;;;;;4.65;4.12;;;;;;;18.99;81.18;99614.97;1770545;80;21011;-77
2022/07/09 07:04:48;;;;;;;5.47;3.98;;;;;;;19.08;81.37;99616.81;1771606;80;21058;-75
2022/07/09 07:07:14;;;;;;;5.40;4.65;;;;;;;19.09;81.76;99617.66;1780072;80;21214;-78
2022/07/09 07:09:41;;;;;;;5.95;4.10;;;;;;;19.04;82.08;99612.94;1784178;80;21005;-76
2022/07/09 07:12:08;;;;;;;6.67;3.90;;;;;;;19.05;82.27;99613.25;1765632;79;21454;-77
2022/07/09 07:14:34;;;;;;;4.20;3.65;;;;;;;19.11;82.37;99606.14;1778457;80;21069;-77
2022/07/09 07:17:01;;;;;;;3.52;3.17;;;;;;;19.19;81.60;99601.24;1783756;80;21065;-77
2022/07/09 07:19:28;;;;;;;4.10;3.10;;;;;;;19.18;81.65;99592.88;1765258;80;21123;-74
2022/07/09 07:21:55;;;;;;;6.22;3.77;;;;;;;19.16;81.68;99606.25;1755271;80;21035;-75
2022/07/09 07:24:21;;;;;;;6.30;2.85;;;;;;;19.10;81.77;99612.02;1783718;80;21057;-78
2022/07/09 07:26:48;;;;;;;4.60;3.08;;;;;;;19.14;81.66;99615.09;1768303;79;21486;-77
2022/07/09 07:29:15;;;;;;;5.25;2.80;;;;;;;19.26;81.20;99620.02;1772053;80;21009;-77
2022/07/09 07:31:42;;;;;;;5.62;3.45;;;;;;;19.28;81.01;99615.72;1784476;80;21272;-79
2022/07/09 07:34:08;;;;;;;3.98;3.67;;;;;;;19.25;81.00;99617.02;1786247;80;21033;-77
2022/07/09 07:36:36;;;;;;;6.28;3.25;;;;;;;19.23;80.61;99609.69;1785191;80;21597;-77
2022/07/09 07:39:02;;;;;;;6.78;3.08;;;;;;;19.21;80.76;99595.63;1783601;80;21104;-77
2022/07/09 07:41:29;;;;;;;6.70;3.33;;;;;;;19.25;80.78;99597.63;1776985;79;21075;-75
2022/07/09 07:43:56;;;;;;;6.28;3.37;;;;;;;19.20;80.84;99608.28;1740115;80;21675;-75
2022/07/09 07:46:22;;;;;;;3.95;3.30;;;;;;;19.14;81.20;99617.28;1769174;80;21583;-77
2022/07/09 07:48:48;;;;;;;4.37;2.80;;;;;;;19.12;81.37;99619.87;1774202;80;21497;-77
2022/07/09 07:51:15;;;;;;;6.03;3.45;;;;;;;19.17;81.14;99614.11;1767798;79;21037;-78
2022/07/09 07:53:42;;;;;;;5.33;3.65;;;;;;;19.25;80.56;99604.36;1778239;79;21002;-79
2022/07/09 07:56:09;;;;;;;6.35;3.60;;;;;;;19.23;81.29;99595.69;1778435;79;21043;-78
2022/07/09 07:58:35;;;;;;;6.87;3.52;;;;;;;19.23;81.02;99581.41;1771857;79;21037;-77
2022/07/09 08:01:04;;;;;;;11.85;3.15;;;;;;;19.17;81.02;99573.72;1768092;79;21033;-75
2022/07/09 08:03:30;;;;;;;13.35;3.87;;;;;;;19.20;80.70;99569.73;1769141;79;21091;-76
2022/07/09 08:05:57;;;;;;;7.40;3.00;;;;;;;19.28;80.78;99561.36;1763123;79;21109;-79
2022/07/09 08:08:23;;;;;;;10.60;3.35;;;;;;;19.24;80.60;99562.88;1771046;80;21186;-78
2022/07/09 08:10:50;;;;;;;8.85;3.50;;;;;;;19.20;80.62;99557.63;1777877;80;21084;-79
2022/07/09 08:13:18;;;;;;;5.05;3.30;;;;;;;19.17;80.59;99553.53;1773775;80;21007;-76
2022/07/09 08:15:45;;;;;;;6.58;3.15;;;;;;;19.23;80.93;99551.79;1777849;80;21042;-77
2022/07/09 08:18:13;;;;;;;6.25;3.22;;;;;;;19.32;80.56;99549.08;1741178;79;21030;-75
2022/07/09 08:20:41;;;;;;;4.35;3.00;;;;;;;19.33;80.85;99548.54;1773412;80;21279;-74
2022/07/09 08:23:08;;;;;;;5.65;3.75;;;;;;;19.36;81.02;99554.29;1777699;80;21084;-74
2022/07/09 08:25:35;;;;;;;6.58;3.15;;;;;;;19.37;80.80;99551.06;1773731;80;21545;-77
2022/07/09 08:28:02;;;;;;;10.60;3.22;;;;;;;19.46;80.81;99556.42;1757156;79;21584;-78
2022/07/09 08:30:29;;;;;;;11.78;3.83;;;;;;;19.57;80.63;99558.86;1745673;80;21065;-75
2022/07/09 08:32:55;;;;;;;5.65;3.22;;;;;;;19.56;80.45;99549.12;1777539;80;21986;-78
2022/07/09 08:35:22;;;;;;;4.85;3.15;;;;;;;19.55;80.09;99546.96;1775368;79;21532;-78
2022/07/09 08:37:49;;;;;;;8.00;3.37;;;;;;;19.54;80.05;99543.95;1776403;80;21542;-77
2022/07/09 08:40:15;;;;;;;5.30;3.40;;;;;;;19.59;80.00;99549.48;1777844;80;21112;-78
2022/07/09 08:42:42;;;;;;;4.87;3.08;;;;;;;19.70;79.67;99543.83;1767858;79;21085;-77
2022/07/09 08:45:13;;;;;;;3.20;2.87;;;;;;;19.73;79.30;99543.91;1741747;79;21135;-77
2022/07/09 08:47:41;;;;;;;4.90;3.22;;;;;;;19.75;79.12;99541.80;1738120;79;21584;-78
2022/07/09 08:50:10;;;;;;;6.30;2.50;;;;;;;19.78;79.00;99538.12;1761432;80;21023;-81
2022/07/09 08:52:41;;;;;;;6.17;3.05;;;;;;;19.90;78.65;99540.00;1765936;79;21073;-81
2022/07/09 08:55:09;;;;;;;8.00;3.62;;;;;;;20.02;78.26;99536.77;1764469;80;21073;-80
2022/07/09 08:57:35;;;;;;;10.30;3.45;;;;;;;20.03;77.79;99535.72;1775662;80;21062;-80
2022/07/09 09:00:04;;;;;;;9.80;3.92;;;;;;;20.02;77.99;99536.77;1772857;79;21034;-81
2022/07/09 09:02:37;;;;;;;10.05;3.70;;;;;;;20.06;78.16;99531.73;1780021;79;21181;-79
2022/07/09 09:05:12;;;;;;;7.83;3.27;;;;;;;20.12;78.70;99535.64;1771159;80;21013;-82
2022/07/09 09:07:39;;;;;;;6.65;3.50;;;;;;;20.28;78.16;99537.32;1780169;80;21045;-80
2022/07/09 09:10:07;;;;;;;5.90;3.20;;;;;;;20.47;77.94;99536.65;1781414;80;21998;-82
2022/07/09 09:12:35;;;;;;;9.95;3.70;;;;;;;20.55;78.03;99537.63;1782183;80;21060;-84
2022/07/09 09:15:08;;;;;;;5.25;3.22;;;;;;;20.63;77.78;99542.70;1756540;80;20962;-86
2022/07/09 09:17:46;;;;;;;6.12;3.22;;;;;;;20.73;77.81;99533.98;1771405;79;21538;-86
2022/07/09 09:20:14;;;;;;;6.70;3.27;;;;;;;20.80;77.12;99542.23;1783566;80;22117;-85
2022/07/09 09:22:49;;;;;;;6.65;2.85;;;;;;;20.94;77.42;99543.30;1744731;80;22570;-84
2022/07/09 09:25:20;;;;;;;4.03;2.95;;;;;;;21.10;76.23;99530.89;1783604;80;21001;-83
2022/07/09 09:27:58;;;;;;;4.20;2.90;;;;;;;21.14;75.69;99526.64;1779158;80;21060;-85
2022/07/09 09:30:30;;;;;;;2.85;2.58;;;;;;;21.16;75.04;99536.13;1768480;79;21699;-83
2022/07/09 09:33:02;;;;;;;2.92;2.62;;;;;;;21.10;74.10;99526.30;1740906;80;21697;-86
2022/07/09 09:35:36;;;;;;;5.25;2.60;;;;;;;21.03;73.66;99532.38;1777295;80;21166;-84
2022/07/09 09:38:03;;;;;;;3.30;2.83;;;;;;;20.93;73.65;99520.86;1772681;80;21596;-84
2022/07/09 09:40:30;;;;;;;2.65;2.17;;;;;;;20.84;73.54;99518.25;1725832;81;21023;-84
2022/07/09 09:42:58;;;;;;;3.72;3.00;;;;;;;20.87;73.99;99521.02;1730207;81;21068;-83
2022/07/09 09:45:26;;;;;;;3.25;2.72;;;;;;;20.86;73.32;99520.20;1765624;79;20981;-85
2022/07/09 09:47:54;;;;;;;2.90;2.65;;;;;;;20.79;74.03;99516.82;1776844;79;21108;-88
2022/07/09 09:50:26;;;;;;;4.28;3.10;;;;;;;20.72;74.30;99507.50;1756933;79;21022;-86
2022/07/09 09:52:54;;;;;;;3.80;3.00;;;;;;;20.70;75.00;99510.16;1739806;80;21104;-86
2022/07/09 09:55:21;;;;;;;3.60;2.95;;;;;;;20.68;75.16;99503.64;1769990;80;21018;-83
2022/07/09 09:57:48;;;;;;;5.40;2.90;;;;;;;20.74;75.27;99499.98;1776211;80;21081;-85
2022/07/09 10:00:15;;;;;;;5.12;3.25;;;;;;;20.74;75.53;99502.68;1740934;81;21782;-85
2022/07/09 10:02:47;;;;;;;4.90;3.00;;;;;;;20.68;75.46;99505.53;1782221;80;21052;-87
2022/07/09 10:05:14;;;;;;;3.62;3.33;;;;;;;20.65;75.64;99516.80;1783031;79;21024;-85
2022/07/09 10:07:41;;;;;;;4.78;3.27;;;;;;;20.58;76.04;99519.08;1760989;79;21095;-84
2022/07/09 10:10:17;;;;;;;3.42;3.10;;;;;;;20.58;75.56;99515.56;1719915;83;21524;-86
2022/07/09 10:12:44;;;;;;;5.33;3.47;;;;;;;20.61;75.60;99513.78;1723369;81;21814;-84
2022/07/09 10:15:26;;;;;;;4.28;3.12;;;;;;;20.56;75.56;99515.80;1761585;80;21033;-85
2022/07/09 10:17:54;;;;;;;4.03;3.27;;;;;;;20.52;75.25;99519.23;1786555;79;21011;-85
2022/07/09 10:20:34;;;;;;;4.55;3.25;;;;;;;20.45;75.54;99515.83;1785236;78;21080;-86
2022/07/09 10:23:01;;;;;;;3.83;2.95;;;;;;;20.42;75.78;99521.19;1781943;79;21084;-84
2022/07/09 10:25:36;;;;;;;3.75;3.33;;;;;;;20.50;76.43;99522.16;1786965;80;21215;-86
2022/07/09 10:28:05;;;;;;;4.00;3.60;;;;;;;20.52;76.56;99518.69;1759056;79;21096;-80
2022/07/09 10:30:33;;;;;;;5.80;3.30;;;;;;;20.51;76.25;99521.62;1770077;78;21039;-83
2022/07/09 10:33:07;;;;;;;4.72;3.95;;;;;;;20.50;76.20;99522.16;1751521;80;21080;-86
2022/07/09 10:35:47;;;;;;;3.52;3.17;;;;;;;20.49;76.33;99519.16;1787431;79;21063;-84
2022/07/09 10:38:15;;;;;;;4.15;3.75;;;;;;;20.54;76.57;99513.87;1757471;80;21236;-82
2022/07/09 10:40:47;;;;;;;5.40;3.35;;;;;;;20.65;75.51;99518.14;1766378;79;21641;-84
2022/07/09 10:43:14;;;;;;;3.87;3.10;;;;;;;20.66;75.76;99509.00;1780584;78;21037;-86
2022/07/09 10:45:44;;;;;;;3.45;3.05;;;;;;;20.70;75.48;99514.20;1761536;80;21119;-82
2022/07/09 10:48:15;;;;;;;3.35;3.10;;;;;;;20.72;75.30;99516.95;1748058;80;21036;-83
2022/07/09 10:50:55;;;;;;;11.88;3.72;;;;;;;20.77;75.06;99522.45;1786350;78;21061;-82
2022/07/09 10:53:24;;;;;;;4.60;3.27;;;;;;;20.61;74.14;99505.15;1795988;78;21004;-84
2022/07/09 10:55:50;;;;;;;5.00;3.37;;;;;;;20.79;74.09;99527.08;1784040;78;21075;-85
2022/07/09 10:58:23;;;;;;;3.80;3.50;;;;;;;20.83;74.02;99534.17;1768172;78;21060;-85
2022/07/09 11:01:02;;;;;;;4.53;3.33;;;;;;;20.80;74.74;99534.64;1762445;80;21034;-83
2022/07/09 11:03:31;;;;;;;3.37;3.08;;;;;;;20.74;74.96;99541.00;1761740;80;21253;-84
2022/07/09 11:05:58;;;;;;;4.67;3.40;;;;;;;20.69;75.07;99536.87;1770620;80;21038;-85
2022/07/09 11:08:25;;;;;;;4.70;2.98;;;;;;;20.61;74.52;99540.23;1782551;76;21051;-84
2022/07/09 11:10:52;;;;;;;5.28;3.65;;;;;;;20.63;74.45;99537.30;1796180;80;21010;-83
2022/07/09 11:13:25;;;;;;;3.33;3.05;;;;;;;20.65;74.24;99537.03;1780230;79;21009;-80
2022/07/09 11:16:00;;;;;;;3.90;3.50;;;;;;;20.62;74.09;99534.30;1787010;79;21216;-83
2022/07/09 11:18:28;;;;;;;3.47;3.00;;;;;;;20.57;74.55;99528.25;1751370;81;21543;-81
2022/07/09 11:20:55;;;;;;;3.85;3.40;;;;;;;20.52;74.02;99525.44;1773530;78;21012;-81
2022/07/09 11:23:21;;;;;;;3.42;3.12;;;;;;;20.46;74.53;99524.23;1790361;79;21028;-81
2022/07/09 11:25:49;;;;;;;3.77;3.00;;;;;;;20.48;74.54;99525.62;1787550;79;21119;-80
2022/07/09 11:28:25;;;;;;;3.83;3.42;;;;;;;20.57;74.31;99528.75;1784151;78;21585;-81
2022/07/09 11:31:03;;;;;;;3.75;3.30;;;;;;;20.58;74.29;99526.36;1770422;79;21505;-83
2022/07/09 11:34:11;;;;;;;4.67;3.50;;;;;;;20.58;74.90;99525.83;1750674;81;21051;-82
2022/07/09 11:35:59;;;;;;;4.25;3.40;;;;;;;20.58;74.57;99517.73;1750556;81;21549;-81
2022/07/09 11:38:27;;;;;;;5.97;3.70;;;;;;;20.57;74.16;99522.84;1757552;81;21034;-82